Time,TemperatureF,DewpointF,PressureIn,WindDirection,WindDirectionDegrees,WindSpeedMPH,WindSpeedGustMPH,Humidity,HourlyPrecipIn,Conditions,Clouds,dailyrainin,SoftwareType,DateUTC
2013-05-10 00:02:00,57.0,34.2,24.32,South,180,6.0,7.0,42,0.00,,,0.00,meteohub,2013-05-10 06:02:00,
2013-05-10 00:07:00,57.0,34.2,24.32,South,180,6.0,7.0,42,0.00,,,0.00,meteohub,2013-05-10 06:07:00,
2013-05-10 00:12:00,57.2,32.5,24.32,SW,225,8.0,8.0,39,0.00,,,0.00,meteohub,2013-05-10 06:12:00,
2013-05-10 00:17:00,57.2,32.5,24.32,South,180,8.0,8.0,39,0.00,,,0.00,meteohub,2013-05-10 06:17:00,
2013-05-10 00:22:00,56.5,33.6,24.32,South,180,7.0,8.0,42,0.00,,,0.00,meteohub,2013-05-10 06:22:00,
2013-05-10 00:27:00,55.2,34.9,24.32,South,180,6.0,8.0,46,0.00,,,0.00,meteohub,2013-05-10 06:27:00,
2013-05-10 00:32:00,54.9,34.5,24.33,South,180,5.0,8.0,46,0.00,,,0.00,meteohub,2013-05-10 06:32:00,
2013-05-10 00:37:00,54.7,34.9,24.33,South,180,5.0,7.0,47,0.00,,,0.00,meteohub,2013-05-10 06:37:00,
2013-05-10 00:42:00,54.5,34.7,24.33,South,180,4.0,7.0,47,0.00,,,0.00,meteohub,2013-05-10 06:42:00,
2013-05-10 00:47:00,54.5,35.2,24.33,SE,135,5.0,5.0,48,0.00,,,0.00,meteohub,2013-05-10 06:47:00,
2013-05-10 00:52:00,54.0,34.2,24.33,South,180,7.0,7.0,47,0.00,,,0.00,meteohub,2013-05-10 06:52:00,
2013-05-10 00:57:00,54.5,34.2,24.32,South,180,9.0,9.0,46,0.00,,,0.00,meteohub,2013-05-10 06:57:00,
2013-05-10 01:02:00,54.7,34.3,24.33,South,180,8.0,9.0,46,0.00,,,0.00,meteohub,2013-05-10 07:02:00,
2013-05-10 01:07:00,54.7,34.3,24.33,South,180,8.0,9.0,46,0.00,,,0.00,meteohub,2013-05-10 07:07:00,
2013-05-10 01:12:00,54.9,34.0,24.33,South,180,7.0,9.0,45,0.00,,,0.00,meteohub,2013-05-10 07:12:00,
2013-05-10 01:17:00,55.4,33.3,24.33,South,180,8.0,8.0,43,0.00,,,0.00,meteohub,2013-05-10 07:17:00,
2013-05-10 01:22:00,55.4,34.3,24.33,South,180,8.0,9.0,45,0.00,,,0.00,meteohub,2013-05-10 07:22:00,
2013-05-10 01:27:00,54.0,34.7,24.33,South,180,8.0,9.0,48,0.00,,,0.00,meteohub,2013-05-10 07:27:00,
2013-05-10 01:32:00,53.4,34.7,24.33,South,180,9.0,9.0,49,0.00,,,0.00,meteohub,2013-05-10 07:32:00,
2013-05-10 01:37:00,53.1,34.3,24.33,South,180,9.0,10.0,49,0.00,,,0.00,meteohub,2013-05-10 07:37:00,
2013-05-10 01:42:00,53.1,34.3,24.33,South,180,9.0,10.0,49,0.00,,,0.00,meteohub,2013-05-10 07:42:00,
2013-05-10 01:47:00,53.2,34.0,24.33,South,180,9.0,10.0,48,0.00,,,0.00,meteohub,2013-05-10 07:47:00,
2013-05-10 01:52:00,53.4,34.2,24.33,South,180,10.0,10.0,48,0.00,,,0.00,meteohub,2013-05-10 07:52:00,
2013-05-10 01:57:00,53.1,34.3,24.33,South,180,9.0,10.0,49,0.00,,,0.00,meteohub,2013-05-10 07:57:00,
2013-05-10 02:02:00,52.9,34.2,24.33,South,180,9.0,10.0,49,0.00,,,0.00,meteohub,2013-05-10 08:02:00,
2013-05-10 02:07:00,52.9,34.2,24.33,South,180,9.0,10.0,49,0.00,,,0.00,meteohub,2013-05-10 08:07:00,
2013-05-10 02:12:00,52.5,34.3,24.33,South,180,8.0,10.0,50,0.00,,,0.00,meteohub,2013-05-10 08:12:00,
2013-05-10 02:17:00,52.3,34.7,24.33,South,180,8.0,9.0,51,0.00,,,0.00,meteohub,2013-05-10 08:17:00,
2013-05-10 02:22:00,52.3,35.2,24.33,South,180,8.0,9.0,52,0.00,,,0.00,meteohub,2013-05-10 08:22:00,
2013-05-10 02:27:00,52.0,34.3,24.33,South,180,8.0,9.0,51,0.00,,,0.00,meteohub,2013-05-10 08:27:00,
2013-05-10 02:32:00,51.6,34.5,24.33,South,180,8.0,9.0,52,0.00,,,0.00,meteohub,2013-05-10 08:32:00,
2013-05-10 02:37:00,51.8,33.8,24.33,South,180,8.0,9.0,50,0.00,,,0.00,meteohub,2013-05-10 08:37:00,
2013-05-10 02:42:00,52.5,34.3,24.33,SW,225,9.0,9.0,50,0.00,,,0.00,meteohub,2013-05-10 08:42:00,
2013-05-10 02:47:00,52.0,34.3,24.33,South,180,8.0,9.0,51,0.00,,,0.00,meteohub,2013-05-10 08:47:00,
2013-05-10 02:52:00,51.8,34.2,24.33,South,180,7.0,9.0,51,0.00,,,0.00,meteohub,2013-05-10 08:52:00,
2013-05-10 02:57:00,51.6,34.5,24.34,South,180,6.0,9.0,52,0.00,,,0.00,meteohub,2013-05-10 08:57:00,
2013-05-10 03:02:00,51.4,34.3,24.34,South,180,6.0,8.0,52,0.00,,,0.00,meteohub,2013-05-10 09:02:00,
2013-05-10 03:07:00,51.4,34.3,24.34,South,180,6.0,7.0,52,0.00,,,0.00,meteohub,2013-05-10 09:07:00,
2013-05-10 03:12:00,51.3,34.7,24.34,South,180,4.0,6.0,53,0.00,,,0.00,meteohub,2013-05-10 09:12:00,
2013-05-10 03:17:00,51.4,34.9,24.34,South,180,4.0,6.0,53,0.00,,,0.00,meteohub,2013-05-10 09:17:00,
2013-05-10 03:22:00,51.4,34.3,24.34,South,180,6.0,6.0,52,0.00,,,0.00,meteohub,2013-05-10 09:22:00,
2013-05-10 03:27:00,51.6,34.2,24.34,South,180,4.0,6.0,51,0.00,,,0.00,meteohub,2013-05-10 09:27:00,
2013-05-10 03:32:00,51.8,32.7,24.34,SW,225,5.0,6.0,48,0.00,,,0.00,meteohub,2013-05-10 09:32:00,
2013-05-10 03:37:00,51.8,34.2,24.34,South,180,4.0,6.0,51,0.00,,,0.00,meteohub,2013-05-10 09:37:00,
2013-05-10 03:42:00,51.3,34.2,24.34,SE,135,6.0,6.0,52,0.00,,,0.00,meteohub,2013-05-10 09:42:00,
2013-05-10 03:47:00,51.1,34.5,24.34,SE,135,7.0,7.0,53,0.00,,,0.00,meteohub,2013-05-10 09:47:00,
2013-05-10 03:52:00,50.9,34.3,24.34,South,180,7.0,8.0,53,0.00,,,0.00,meteohub,2013-05-10 09:52:00,
2013-05-10 03:57:00,50.9,34.3,24.34,SSW,203,4.0,8.0,53,0.00,,,0.00,meteohub,2013-05-10 09:57:00,
2013-05-10 04:02:00,51.1,33.6,24.34,South,180,7.0,8.0,51,0.00,,,0.00,meteohub,2013-05-10 10:02:00,
2013-05-10 04:12:00,51.3,33.8,24.35,South,180,5.0,8.0,51,0.00,,,0.00,meteohub,2013-05-10 10:12:00,
2013-05-10 04:17:00,51.4,32.9,24.34,South,180,8.0,8.0,49,0.00,,,0.00,meteohub,2013-05-10 10:17:00,
2013-05-10 04:22:00,51.8,32.2,24.35,South,180,9.0,9.0,47,0.00,,,0.00,meteohub,2013-05-10 10:22:00,
2013-05-10 04:27:00,51.8,33.3,24.35,SSW,203,6.0,9.0,49,0.00,,,0.00,meteohub,2013-05-10 10:27:00,
2013-05-10 04:32:00,51.6,33.6,24.35,SW,225,5.0,9.0,50,0.00,,,0.00,meteohub,2013-05-10 10:32:00,
2013-05-10 04:37:00,51.4,32.4,24.35,SW,225,7.0,9.0,48,0.00,,,0.00,meteohub,2013-05-10 10:37:00,
2013-05-10 04:42:00,51.6,32.5,24.35,South,180,5.0,7.0,48,0.00,,,0.00,meteohub,2013-05-10 10:42:00,
2013-05-10 04:47:00,53.6,30.4,24.35,West,270,8.0,12.0,41,0.00,,,0.00,meteohub,2013-05-10 10:47:00,
2013-05-10 04:52:00,54.1,30.4,24.35,West,270,8.0,12.0,40,0.00,,,0.00,meteohub,2013-05-10 10:52:00,
2013-05-10 04:57:00,54.5,30.0,24.35,West,270,7.0,12.0,39,0.00,,,0.00,meteohub,2013-05-10 10:57:00,
2013-05-10 05:02:00,54.7,30.2,24.35,West,270,5.0,12.0,39,0.00,,,0.00,meteohub,2013-05-10 11:02:00,
2013-05-10 05:07:00,54.7,30.2,24.35,West,270,5.0,12.0,39,0.00,,,0.00,meteohub,2013-05-10 11:07:00,
2013-05-10 05:12:00,54.9,29.7,24.35,West,270,6.0,12.0,38,0.00,,,0.00,meteohub,2013-05-10 11:12:00,
2013-05-10 05:22:00,55.0,29.8,24.35,NW,315,8.0,8.0,38,0.00,,,0.00,meteohub,2013-05-10 11:22:00,
2013-05-10 05:32:00,54.9,30.4,24.35,NW,315,9.0,10.0,39,0.00,,,0.00,meteohub,2013-05-10 11:32:00,
2013-05-10 05:37:00,54.9,30.4,24.35,NW,315,7.0,11.0,39,0.00,,,0.00,meteohub,2013-05-10 11:37:00,
2013-05-10 05:42:00,54.9,30.4,24.35,West,270,6.0,11.0,39,0.00,,,0.00,meteohub,2013-05-10 11:42:00,
2013-05-10 05:47:00,54.5,30.7,24.35,West,270,9.0,11.0,40,0.00,,,0.00,meteohub,2013-05-10 11:47:00,
2013-05-10 05:52:00,54.7,30.9,24.35,NW,315,9.0,9.0,40,0.00,,,0.00,meteohub,2013-05-10 11:52:00,
2013-05-10 05:57:00,48.4,33.8,24.34,North,0,52.0,52.0,57,0.00,,,0.00,meteohub,2013-05-10 11:57:00,
2013-05-10 06:02:00,45.1,33.6,24.34,North,0,59.0,59.0,64,0.00,,,0.00,meteohub,2013-05-10 12:02:00,
2013-05-10 06:07:00,45.1,33.6,24.35,North,0,59.0,59.0,64,0.00,,,0.00,meteohub,2013-05-10 12:07:00,
2013-05-10 06:12:00,43.3,33.4,24.36,North,0,43.0,59.0,68,0.02,,,0.01,meteohub,2013-05-10 12:12:00,
2013-05-10 06:17:00,42.8,33.3,24.37,NW,315,41.0,59.0,69,0.04,,,0.04,meteohub,2013-05-10 12:17:00,
2013-05-10 06:22:00,42.6,33.1,24.38,NW,315,36.0,59.0,69,0.04,,,0.04,meteohub,2013-05-10 12:22:00,
2013-05-10 06:27:00,42.6,32.0,24.37,NW,315,46.0,46.0,66,0.06,,,0.06,meteohub,2013-05-10 12:27:00,
2013-05-10 06:32:00,42.3,32.2,24.38,NW,315,40.0,46.0,67,0.06,,,0.06,meteohub,2013-05-10 12:32:00,
2013-05-10 06:37:00,42.6,31.3,24.38,WNW,293,43.0,46.0,64,0.06,,,0.06,meteohub,2013-05-10 12:37:00,
2013-05-10 06:42:00,42.6,31.3,24.38,NW,315,44.0,46.0,64,0.06,,,0.06,meteohub,2013-05-10 12:42:00,
2013-05-10 06:47:00,42.4,31.5,24.39,NW,315,42.0,46.0,65,0.06,,,0.06,meteohub,2013-05-10 12:47:00,
2013-05-10 06:52:00,42.4,31.8,24.40,NW,315,42.0,46.0,66,0.06,,,0.06,meteohub,2013-05-10 12:52:00,
2013-05-10 06:57:00,42.4,31.8,24.40,NW,315,44.0,44.0,66,0.06,,,0.06,meteohub,2013-05-10 12:57:00,
2013-05-10 07:02:00,42.3,32.5,24.40,NW,315,43.0,49.0,68,0.06,,,0.06,meteohub,2013-05-10 13:02:00,
2013-05-10 07:07:00,42.3,32.5,24.41,NW,315,43.0,49.0,68,0.06,,,0.06,meteohub,2013-05-10 13:07:00,
2013-05-10 07:12:00,41.4,33.1,24.41,WNW,293,43.0,49.0,72,0.06,,,0.08,meteohub,2013-05-10 13:12:00,
2013-05-10 07:17:00,41.4,33.4,24.41,WNW,293,44.0,46.0,73,0.06,,,0.09,meteohub,2013-05-10 13:17:00,
2013-05-10 07:22:00,41.2,33.4,24.41,NW,315,48.0,49.0,74,0.04,,,0.09,meteohub,2013-05-10 13:22:00,
2013-05-10 07:27:00,41.2,34.2,24.42,North,0,47.0,49.0,76,0.05,,,0.11,meteohub,2013-05-10 13:27:00,
2013-05-10 07:32:00,41.5,34.5,24.41,NNW,338,53.0,53.0,76,0.08,,,0.14,meteohub,2013-05-10 13:32:00,
2013-05-10 07:37:00,41.4,34.3,24.42,NW,315,51.0,53.0,76,0.08,,,0.14,meteohub,2013-05-10 13:37:00,
2013-05-10 07:42:00,41.0,34.3,24.40,North,0,53.0,53.0,77,0.11,,,0.17,meteohub,2013-05-10 13:42:00,
2013-05-10 07:47:00,40.8,34.9,24.42,NW,315,54.0,55.0,79,0.12,,,0.18,meteohub,2013-05-10 13:47:00,
2013-05-10 07:52:00,40.6,34.9,24.42,North,0,53.0,55.0,80,0.13,,,0.19,meteohub,2013-05-10 13:52:00,
2013-05-10 07:57:00,40.6,34.9,24.42,WNW,293,54.0,55.0,80,0.14,,,0.20,meteohub,2013-05-10 13:57:00,
2013-05-10 08:02:00,40.1,34.7,24.42,NW,315,55.0,57.0,81,0.17,,,0.22,meteohub,2013-05-10 14:02:00,
2013-05-10 08:07:00,40.1,34.7,24.43,NW,315,55.0,57.0,81,0.17,,,0.22,meteohub,2013-05-10 14:07:00,
2013-05-10 08:12:00,41.2,35.4,24.43,NW,315,46.0,57.0,80,0.14,,,0.22,meteohub,2013-05-10 14:12:00,
2013-05-10 08:17:00,39.9,34.5,24.44,NW,315,49.0,55.0,81,0.15,,,0.25,meteohub,2013-05-10 14:17:00,
2013-05-10 08:22:00,39.4,34.9,24.44,NW,315,45.0,55.0,84,0.15,,,0.25,meteohub,2013-05-10 14:22:00,
2013-05-10 08:27:00,39.2,34.7,24.44,WNW,293,50.0,54.0,84,0.12,,,0.25,meteohub,2013-05-10 14:27:00,
2013-05-10 08:32:00,39.7,35.2,24.44,NNW,338,49.0,54.0,84,0.11,,,0.25,meteohub,2013-05-10 14:32:00,
2013-05-10 08:37:00,38.8,34.7,24.46,NW,315,41.0,55.0,85,0.12,,,0.26,meteohub,2013-05-10 14:37:00,
2013-05-10 08:42:00,38.8,34.7,24.47,North,0,39.0,55.0,85,0.09,,,0.26,meteohub,2013-05-10 14:42:00,
2013-05-10 08:47:00,38.3,34.2,24.46,NW,315,46.0,55.0,85,0.08,,,0.26,meteohub,2013-05-10 14:47:00,
2013-05-10 08:52:00,38.5,34.7,24.46,WNW,293,43.0,46.0,86,0.06,,,0.26,meteohub,2013-05-10 14:52:00,
2013-05-10 08:57:00,39.0,34.9,24.45,North,0,46.0,47.0,85,0.07,,,0.27,meteohub,2013-05-10 14:57:00,
2013-05-10 09:02:00,39.0,34.5,24.46,NNW,338,47.0,48.0,84,0.05,,,0.27,meteohub,2013-05-10 15:02:00,
2013-05-10 09:07:00,39.0,34.5,24.47,NNW,338,47.0,48.0,84,0.05,,,0.27,meteohub,2013-05-10 15:07:00,
2013-05-10 09:12:00,39.2,35.1,24.49,NW,315,34.0,48.0,85,0.04,,,0.27,meteohub,2013-05-10 15:12:00,
2013-05-10 09:17:00,39.2,35.1,24.49,NW,315,37.0,47.0,85,0.02,,,0.27,meteohub,2013-05-10 15:17:00,
2013-05-10 09:22:00,39.4,34.9,24.48,NNW,338,40.0,47.0,84,0.02,,,0.27,meteohub,2013-05-10 15:22:00,
2013-05-10 09:27:00,39.4,35.2,24.47,North,0,43.0,43.0,85,0.02,,,0.27,meteohub,2013-05-10 15:27:00,
2013-05-10 09:32:00,39.6,35.1,24.48,North,0,40.0,43.0,84,0.05,,,0.30,meteohub,2013-05-10 15:32:00,
2013-05-10 09:37:00,39.7,35.1,24.48,NNW,338,38.0,43.0,83,0.04,,,0.30,meteohub,2013-05-10 15:37:00,
2013-05-10 09:47:00,40.1,35.6,24.50,North,0,35.0,42.0,84,0.04,,,0.30,meteohub,2013-05-10 15:47:00,
2013-05-10 09:52:00,40.1,35.6,24.49,North,0,36.0,40.0,84,0.04,,,0.30,meteohub,2013-05-10 15:52:00,
2013-05-10 09:57:00,41.9,37.0,24.49,WNW,293,34.0,37.0,83,0.02,,,0.30,meteohub,2013-05-10 15:57:00,
2013-05-10 10:02:00,41.0,35.6,24.50,North,0,34.0,37.0,81,0.02,,,0.30,meteohub,2013-05-10 16:02:00,
2013-05-10 10:12:00,41.5,36.5,24.51,North,0,28.0,35.0,82,0.02,,,0.30,meteohub,2013-05-10 16:12:00,
2013-05-10 10:17:00,41.7,36.3,24.51,North,0,27.0,34.0,81,0.02,,,0.30,meteohub,2013-05-10 16:17:00,
2013-05-10 10:22:00,41.5,35.8,24.51,North,0,27.0,34.0,80,0.02,,,0.30,meteohub,2013-05-10 16:22:00,
2013-05-10 10:27:00,42.4,36.1,24.51,North,0,28.0,31.0,78,0.02,,,0.30,meteohub,2013-05-10 16:27:00,
2013-05-10 10:32:00,41.9,35.6,24.52,North,0,24.0,31.0,78,0.00,,,0.30,meteohub,2013-05-10 16:32:00,
2013-05-10 10:37:00,42.6,36.3,24.51,North,0,24.0,28.0,78,0.00,,,0.30,meteohub,2013-05-10 16:37:00,
2013-05-10 10:42:00,43.2,35.4,24.51,North,0,27.0,29.0,74,0.00,,,0.30,meteohub,2013-05-10 16:42:00,
2013-05-10 10:47:00,44.2,36.1,24.51,North,0,28.0,30.0,73,0.00,,,0.30,meteohub,2013-05-10 16:47:00,
2013-05-10 10:52:00,44.2,35.4,24.51,North,0,30.0,30.0,71,0.00,,,0.30,meteohub,2013-05-10 16:52:00,
2013-05-10 10:57:00,43.7,34.9,24.52,North,0,29.0,31.0,71,0.00,,,0.30,meteohub,2013-05-10 16:57:00,
2013-05-10 11:02:00,44.1,35.6,24.51,North,0,27.0,33.0,72,0.00,,,0.30,meteohub,2013-05-10 17:02:00,
2013-05-10 11:07:00,44.1,35.6,24.51,North,0,27.0,33.0,72,0.00,,,0.30,meteohub,2013-05-10 17:07:00,
2013-05-10 11:12:00,45.1,35.2,24.51,North,0,31.0,33.0,68,0.00,,,0.30,meteohub,2013-05-10 17:12:00,
2013-05-10 11:17:00,45.5,35.6,24.51,North,0,35.0,35.0,68,0.00,,,0.30,meteohub,2013-05-10 17:17:00,
2013-05-10 11:22:00,44.6,34.7,24.51,North,0,34.0,35.0,68,0.00,,,0.30,meteohub,2013-05-10 17:22:00,
2013-05-10 11:27:00,45.9,36.0,24.52,North,0,23.0,35.0,68,0.00,,,0.30,meteohub,2013-05-10 17:27:00,
2013-05-10 11:32:00,45.5,34.3,24.51,North,0,30.0,35.0,65,0.00,,,0.30,meteohub,2013-05-10 17:32:00,
2013-05-10 11:37:00,46.6,35.8,24.51,North,0,32.0,35.0,66,0.00,,,0.30,meteohub,2013-05-10 17:37:00,
2013-05-10 11:42:00,45.7,33.4,24.51,North,0,30.0,32.0,62,0.00,,,0.30,meteohub,2013-05-10 17:42:00,
2013-05-10 11:47:00,45.9,33.3,24.52,North,0,27.0,34.0,61,0.00,,,0.30,meteohub,2013-05-10 17:47:00,
2013-05-10 11:52:00,46.2,33.1,24.51,North,0,29.0,34.0,60,0.00,,,0.30,meteohub,2013-05-10 17:52:00,
2013-05-10 11:57:00,46.8,34.9,24.51,North,0,26.0,34.0,63,0.00,,,0.30,meteohub,2013-05-10 17:57:00,
2013-05-10 12:02:00,47.7,34.5,24.53,North,0,29.0,34.0,60,0.00,,,0.30,meteohub,2013-05-10 18:02:00,
2013-05-10 12:07:00,47.7,34.5,24.52,North,0,29.0,34.0,60,0.00,,,0.30,meteohub,2013-05-10 18:07:00,
2013-05-10 12:12:00,48.0,34.9,24.52,North,0,20.0,33.0,60,0.00,,,0.30,meteohub,2013-05-10 18:12:00,
2013-05-10 12:17:00,49.1,34.2,24.52,North,0,28.0,29.0,56,0.00,,,0.30,meteohub,2013-05-10 18:17:00,
2013-05-10 12:22:00,48.2,34.2,24.52,NE,45,21.0,29.0,58,0.00,,,0.30,meteohub,2013-05-10 18:22:00,
2013-05-10 12:27:00,48.6,33.6,24.51,North,0,26.0,28.0,56,0.00,,,0.30,meteohub,2013-05-10 18:27:00,
2013-05-10 12:32:00,49.1,34.9,24.52,North,0,21.0,28.0,58,0.00,,,0.30,meteohub,2013-05-10 18:32:00,
2013-05-10 12:37:00,48.0,32.5,24.52,North,0,21.0,27.0,55,0.00,,,0.30,meteohub,2013-05-10 18:37:00,
2013-05-10 12:42:00,48.9,32.5,24.51,North,0,30.0,30.0,53,0.00,,,0.30,meteohub,2013-05-10 18:42:00,
2013-05-10 12:47:00,47.8,32.9,24.52,North,0,23.0,30.0,56,0.00,,,0.30,meteohub,2013-05-10 18:47:00,
2013-05-10 12:52:00,48.6,34.0,24.52,North,0,23.0,30.0,57,0.00,,,0.30,meteohub,2013-05-10 18:52:00,
2013-05-10 12:57:00,49.1,32.2,24.51,North,0,22.0,30.0,52,0.00,,,0.30,meteohub,2013-05-10 18:57:00,
2013-05-10 13:02:00,48.9,33.4,24.51,North,0,17.0,23.0,55,0.00,,,0.30,meteohub,2013-05-10 19:02:00,
2013-05-10 13:07:00,48.9,33.4,24.51,North,0,17.0,23.0,55,0.00,,,0.30,meteohub,2013-05-10 19:07:00,
2013-05-10 13:12:00,49.3,32.4,24.51,North,0,22.0,22.0,52,0.00,,,0.30,meteohub,2013-05-10 19:12:00,
2013-05-10 13:17:00,50.4,33.4,24.51,North,0,15.0,24.0,52,0.00,,,0.30,meteohub,2013-05-10 19:17:00,
2013-05-10 13:22:00,50.7,34.2,24.51,North,0,23.0,24.0,53,0.00,,,0.30,meteohub,2013-05-10 19:22:00,
2013-05-10 13:27:00,50.2,31.8,24.51,North,0,12.0,29.0,49,0.00,,,0.30,meteohub,2013-05-10 19:27:00,
2013-05-10 13:32:00,50.0,30.6,24.51,North,0,25.0,29.0,47,0.00,,,0.30,meteohub,2013-05-10 19:32:00,
2013-05-10 13:37:00,50.9,32.9,24.51,NE,45,8.0,29.0,50,0.00,,,0.30,meteohub,2013-05-10 19:37:00,
2013-05-10 13:42:00,50.4,32.9,24.51,North,0,25.0,25.0,51,0.00,,,0.30,meteohub,2013-05-10 19:42:00,
2013-05-10 13:47:00,50.7,32.2,24.51,NE,45,17.0,28.0,49,0.00,,,0.30,meteohub,2013-05-10 19:47:00,
2013-05-10 13:52:00,50.9,32.4,24.51,North,0,12.0,28.0,49,0.00,,,0.30,meteohub,2013-05-10 19:52:00,
2013-05-10 13:57:00,50.9,31.8,24.51,North,0,20.0,25.0,48,0.00,,,0.30,meteohub,2013-05-10 19:57:00,
2013-05-10 14:02:00,50.7,31.8,24.50,North,0,15.0,26.0,48,0.00,,,0.30,meteohub,2013-05-10 20:02:00,
2013-05-10 14:07:00,50.7,31.8,24.51,North,0,15.0,26.0,48,0.00,,,0.30,meteohub,2013-05-10 20:07:00,
2013-05-10 14:12:00,51.8,32.7,24.50,East,90,11.0,26.0,48,0.00,,,0.30,meteohub,2013-05-10 20:12:00,
2013-05-10 14:17:00,51.3,32.7,24.50,North,0,22.0,22.0,49,0.00,,,0.30,meteohub,2013-05-10 20:17:00,
2013-05-10 14:22:00,51.3,33.3,24.51,NE,45,18.0,23.0,50,0.00,,,0.30,meteohub,2013-05-10 20:22:00,
2013-05-10 14:27:00,52.2,33.6,24.51,North,0,9.0,23.0,49,0.00,,,0.30,meteohub,2013-05-10 20:27:00,
2013-05-10 14:32:00,53.4,33.6,24.50,North,0,12.0,23.0,47,0.00,,,0.30,meteohub,2013-05-10 20:32:00,
2013-05-10 14:37:00,53.2,33.4,24.51,North,0,16.0,22.0,47,0.00,,,0.30,meteohub,2013-05-10 20:37:00,
2013-05-10 14:42:00,52.9,31.6,24.50,East,90,14.0,19.0,44,0.00,,,0.30,meteohub,2013-05-10 20:42:00,
2013-05-10 14:47:00,53.6,32.2,24.50,NE,45,9.0,19.0,44,0.00,,,0.30,meteohub,2013-05-10 20:47:00,
2013-05-10 14:52:00,53.4,31.5,24.50,NE,45,8.0,19.0,43,0.00,,,0.30,meteohub,2013-05-10 20:52:00,
2013-05-10 14:57:00,53.2,31.3,24.50,NNW,338,20.0,20.0,43,0.00,,,0.30,meteohub,2013-05-10 20:57:00,
2013-05-10 15:02:00,53.1,30.6,24.50,NNE,23,15.0,21.0,42,0.00,,,0.30,meteohub,2013-05-10 21:02:00,
2013-05-10 15:07:00,53.1,30.6,24.50,NNE,23,15.0,21.0,42,0.00,,,0.30,meteohub,2013-05-10 21:07:00,
2013-05-10 15:12:00,53.1,32.4,24.49,NNE,23,16.0,21.0,45,0.00,,,0.30,meteohub,2013-05-10 21:12:00,
2013-05-10 15:17:00,53.6,31.1,24.50,NNW,338,10.0,19.0,42,0.00,,,0.30,meteohub,2013-05-10 21:17:00,
2013-05-10 15:22:00,53.6,31.1,24.49,North,0,17.0,19.0,42,0.00,,,0.30,meteohub,2013-05-10 21:22:00,
2013-05-10 15:27:00,52.7,30.7,24.49,NE,45,17.0,19.0,43,0.00,,,0.30,meteohub,2013-05-10 21:27:00,
2013-05-10 15:32:00,53.8,31.3,24.49,North,0,15.0,17.0,42,0.00,,,0.30,meteohub,2013-05-10 21:32:00,
2013-05-10 15:37:00,53.8,30.6,24.49,North,0,8.0,17.0,41,0.00,,,0.30,meteohub,2013-05-10 21:37:00,
2013-05-10 15:42:00,54.1,31.5,24.49,NW,315,19.0,19.0,42,0.00,,,0.30,meteohub,2013-05-10 21:42:00,
2013-05-10 15:47:00,53.4,29.1,24.49,North,0,15.0,23.0,39,0.00,,,0.30,meteohub,2013-05-10 21:47:00,
2013-05-10 15:52:00,53.8,30.6,24.48,North,0,20.0,23.0,41,0.00,,,0.30,meteohub,2013-05-10 21:52:00,
2013-05-10 15:57:00,54.1,29.7,24.48,North,0,17.0,23.0,39,0.00,,,0.30,meteohub,2013-05-10 21:57:00,
2013-05-10 16:02:00,53.8,26.1,24.49,North,0,22.0,23.0,34,0.00,,,0.30,meteohub,2013-05-10 22:02:00,
2013-05-10 16:07:00,53.8,26.1,24.48,North,0,22.0,23.0,34,0.00,,,0.30,meteohub,2013-05-10 22:07:00,
2013-05-10 16:12:00,54.0,25.5,24.49,NE,45,17.0,22.0,33,0.00,,,0.30,meteohub,2013-05-10 22:12:00,
2013-05-10 16:22:00,54.0,24.1,24.48,North,0,11.0,22.0,31,0.00,,,0.30,meteohub,2013-05-10 22:22:00,
2013-05-10 16:27:00,54.5,26.1,24.48,NE,45,17.0,20.0,33,0.00,,,0.30,meteohub,2013-05-10 22:27:00,
2013-05-10 16:32:00,53.8,25.3,24.48,North,0,23.0,23.0,33,0.00,,,0.30,meteohub,2013-05-10 22:32:00,
2013-05-10 16:37:00,54.0,23.2,24.48,North,0,20.0,23.0,30,0.00,,,0.30,meteohub,2013-05-10 22:37:00,
2013-05-10 16:42:00,54.1,25.7,24.48,North,0,12.0,23.0,33,0.00,,,0.30,meteohub,2013-05-10 22:42:00,
2013-05-10 16:52:00,54.0,21.6,24.48,North,0,17.0,21.0,28,0.00,,,0.30,meteohub,2013-05-10 22:52:00,
2013-05-10 16:57:00,54.1,23.4,24.48,North,0,16.0,21.0,30,0.00,,,0.30,meteohub,2013-05-10 22:57:00,
2013-05-10 17:02:00,54.0,21.6,24.48,North,0,15.0,22.0,28,0.00,,,0.30,meteohub,2013-05-10 23:02:00,
2013-05-10 17:07:00,54.0,21.6,24.48,North,0,15.0,22.0,28,0.00,,,0.30,meteohub,2013-05-10 23:07:00,
2013-05-10 17:12:00,54.1,21.7,24.48,NE,45,12.0,22.0,28,0.00,,,0.30,meteohub,2013-05-10 23:12:00,
2013-05-10 17:17:00,54.7,22.3,24.48,North,0,15.0,21.0,28,0.00,,,0.30,meteohub,2013-05-10 23:17:00,
2013-05-10 17:22:00,55.2,24.3,24.48,WNW,293,11.0,21.0,30,0.00,,,0.30,meteohub,2013-05-10 23:22:00,
2013-05-10 17:27:00,54.5,22.8,24.48,North,0,14.0,17.0,29,0.00,,,0.30,meteohub,2013-05-10 23:27:00,
2013-05-10 17:32:00,54.1,21.7,24.48,North,0,17.0,17.0,28,0.00,,,0.30,meteohub,2013-05-10 23:32:00,
2013-05-10 17:37:00,54.5,23.7,24.48,North,0,17.0,18.0,30,0.00,,,0.30,meteohub,2013-05-10 23:37:00,
2013-05-10 17:42:00,54.7,23.0,24.48,North,0,17.0,18.0,29,0.00,,,0.30,meteohub,2013-05-10 23:42:00,
2013-05-10 17:47:00,54.5,22.8,24.48,North,0,15.0,18.0,29,0.00,,,0.30,meteohub,2013-05-10 23:47:00,
2013-05-10 17:52:00,54.1,21.7,24.48,North,0,17.0,20.0,28,0.00,,,0.30,meteohub,2013-05-10 23:52:00,
2013-05-10 17:57:00,54.3,24.3,24.48,North,0,17.0,21.0,31,0.00,,,0.30,meteohub,2013-05-10 23:57:00,
2013-05-10 18:02:00,54.1,22.6,24.48,North,0,20.0,21.0,29,0.00,,,0.30,meteohub,2013-05-11 00:02:00,
2013-05-10 18:07:00,54.1,22.6,24.48,North,0,20.0,23.0,29,0.00,,,0.00,meteohub,2013-05-11 00:07:00,
2013-05-10 18:12:00,54.0,21.6,24.48,North,0,15.0,23.0,28,0.00,,,0.00,meteohub,2013-05-11 00:12:00,
2013-05-10 18:17:00,54.0,21.6,24.48,North,0,17.0,20.0,28,0.00,,,0.00,meteohub,2013-05-11 00:17:00,
2013-05-10 18:22:00,54.1,21.7,24.48,North,0,14.0,20.0,28,0.00,,,0.00,meteohub,2013-05-11 00:22:00,
2013-05-10 18:27:00,54.0,22.5,24.47,NNE,23,15.0,20.0,29,0.00,,,0.00,meteohub,2013-05-11 00:27:00,
2013-05-10 18:32:00,54.3,25.2,24.47,North,0,20.0,20.0,32,0.00,,,0.00,meteohub,2013-05-11 00:32:00,
2013-05-10 18:37:00,54.0,23.2,24.48,North,0,16.0,21.0,30,0.00,,,0.00,meteohub,2013-05-11 00:37:00,
2013-05-10 18:42:00,54.0,24.1,24.47,North,0,15.0,21.0,31,0.00,,,0.00,meteohub,2013-05-11 00:42:00,
2013-05-10 18:47:00,54.0,22.5,24.47,NE,45,15.0,21.0,29,0.00,,,0.00,meteohub,2013-05-11 00:47:00,
2013-05-10 18:52:00,54.1,23.4,24.47,North,0,16.0,18.0,30,0.00,,,0.00,meteohub,2013-05-11 00:52:00,
2013-05-10 18:57:00,53.6,25.2,24.47,North,0,15.0,17.0,33,0.00,,,0.00,meteohub,2013-05-11 00:57:00,
2013-05-10 19:02:00,53.6,22.8,24.47,North,0,17.0,18.0,30,0.00,,,0.00,meteohub,2013-05-11 01:02:00,
2013-05-10 19:07:00,53.6,22.8,24.47,North,0,17.0,18.0,30,0.00,,,0.00,meteohub,2013-05-11 01:07:00,
2013-05-10 19:12:00,54.0,24.8,24.47,NNE,23,14.0,18.0,32,0.00,,,0.00,meteohub,2013-05-11 01:12:00,
2013-05-10 19:17:00,53.6,24.4,24.47,North,0,15.0,17.0,32,0.00,,,0.00,meteohub,2013-05-11 01:17:00,
2013-05-10 19:22:00,53.6,24.4,24.47,North,0,13.0,17.0,32,0.00,,,0.00,meteohub,2013-05-11 01:22:00,
2013-05-10 19:27:00,53.6,23.7,24.47,NE,45,14.0,15.0,31,0.00,,,0.00,meteohub,2013-05-11 01:27:00,
2013-05-10 19:32:00,53.4,25.7,24.47,North,0,11.0,16.0,34,0.00,,,0.00,meteohub,2013-05-11 01:32:00,
2013-05-10 19:37:00,53.2,23.4,24.47,NE,45,13.0,16.0,31,0.00,,,0.00,meteohub,2013-05-11 01:37:00,
2013-05-10 19:42:00,53.1,24.8,24.47,NNW,338,12.0,17.0,33,0.00,,,0.00,meteohub,2013-05-11 01:42:00,
2013-05-10 19:47:00,52.9,24.6,24.47,NE,45,15.0,17.0,33,0.00,,,0.00,meteohub,2013-05-11 01:47:00,
2013-05-10 19:52:00,52.3,24.1,24.47,NE,45,15.0,17.0,33,0.00,,,0.00,meteohub,2013-05-11 01:52:00,
2013-05-10 19:57:00,52.0,23.7,24.48,NE,45,16.0,16.0,33,0.00,,,0.00,meteohub,2013-05-11 01:57:00,
2013-05-10 20:02:00,51.8,24.3,24.48,NE,45,12.0,16.0,34,0.00,,,0.00,meteohub,2013-05-11 02:02:00,
2013-05-10 20:07:00,51.8,24.3,24.48,NE,45,12.0,16.0,34,0.00,,,0.00,meteohub,2013-05-11 02:07:00,
2013-05-10 20:12:00,51.1,25.7,24.48,NE,45,11.0,16.0,37,0.00,,,0.00,meteohub,2013-05-11 02:12:00,
2013-05-10 20:17:00,50.7,25.3,24.48,NE,45,13.0,15.0,37,0.00,,,0.00,meteohub,2013-05-11 02:17:00,
2013-05-10 20:22:00,50.4,25.7,24.48,North,0,12.0,15.0,38,0.00,,,0.00,meteohub,2013-05-11 02:22:00,
2013-05-10 20:27:00,50.0,25.3,24.48,NNE,23,11.0,15.0,38,0.00,,,0.00,meteohub,2013-05-11 02:27:00,
2013-05-10 20:32:00,49.5,25.0,24.48,NE,45,11.0,14.0,38,0.00,,,0.00,meteohub,2013-05-11 02:32:00,
2013-05-10 20:37:00,49.1,24.6,24.48,NE,45,10.0,13.0,38,0.00,,,0.00,meteohub,2013-05-11 02:37:00,
2013-05-10 20:42:00,48.7,24.3,24.48,NE,45,10.0,12.0,38,0.00,,,0.00,meteohub,2013-05-11 02:42:00,
2013-05-10 20:47:00,48.2,24.4,24.48,NE,45,11.0,12.0,39,0.00,,,0.00,meteohub,2013-05-11 02:47:00,
2013-05-10 20:52:00,47.8,24.1,24.48,NE,45,12.0,12.0,39,0.00,,,0.00,meteohub,2013-05-11 02:52:00,
2013-05-10 20:57:00,47.3,24.3,24.48,NE,45,11.0,13.0,40,0.00,,,0.00,meteohub,2013-05-11 02:57:00,
2013-05-10 21:02:00,47.1,24.1,24.48,NE,45,12.0,13.0,40,0.00,,,0.00,meteohub,2013-05-11 03:02:00,
2013-05-10 21:07:00,47.1,24.1,24.48,NE,45,12.0,13.0,40,0.00,,,0.00,meteohub,2013-05-11 03:07:00,
2013-05-10 21:12:00,46.9,24.4,24.48,NE,45,11.0,14.0,41,0.00,,,0.00,meteohub,2013-05-11 03:12:00,
2013-05-10 21:17:00,46.9,24.4,24.48,NE,45,10.0,14.0,41,0.00,,,0.00,meteohub,2013-05-11 03:17:00,
2013-05-10 21:22:00,46.9,24.4,24.48,NE,45,9.0,14.0,41,0.00,,,0.00,meteohub,2013-05-11 03:22:00,
2013-05-10 21:27:00,46.8,24.3,24.49,NE,45,11.0,13.0,41,0.00,,,0.00,meteohub,2013-05-11 03:27:00,
2013-05-10 21:32:00,47.1,24.1,24.48,NE,45,9.0,13.0,40,0.00,,,0.00,meteohub,2013-05-11 03:32:00,
2013-05-10 21:37:00,47.3,23.5,24.48,NE,45,10.0,11.0,39,0.00,,,0.00,meteohub,2013-05-11 03:37:00,
2013-05-10 21:42:00,47.7,23.4,24.49,NE,45,8.0,11.0,38,0.00,,,0.00,meteohub,2013-05-11 03:42:00,
2013-05-10 21:47:00,47.8,23.5,24.48,East,90,8.0,11.0,38,0.00,,,0.00,meteohub,2013-05-11 03:47:00,
2013-05-10 21:52:00,47.7,23.9,24.48,NE,45,8.0,10.0,39,0.00,,,0.00,meteohub,2013-05-11 03:52:00,
2013-05-10 21:57:00,47.8,23.5,24.48,NE,45,10.0,10.0,38,0.00,,,0.00,meteohub,2013-05-11 03:57:00,
2013-05-10 22:02:00,48.2,23.7,24.49,NE,45,7.0,10.0,38,0.00,,,0.00,meteohub,2013-05-11 04:02:00,
2013-05-10 22:07:00,48.2,23.7,24.49,NE,45,7.0,10.0,38,0.00,,,0.00,meteohub,2013-05-11 04:07:00,
2013-05-10 22:12:00,47.5,23.2,24.49,NE,45,7.0,10.0,38,0.00,,,0.00,meteohub,2013-05-11 04:12:00,
2013-05-10 22:17:00,47.3,23.5,24.49,North,0,5.0,8.0,39,0.00,,,0.00,meteohub,2013-05-11 04:17:00,
2013-05-10 22:22:00,47.3,23.5,24.48,NE,45,7.0,8.0,39,0.00,,,0.00,meteohub,2013-05-11 04:22:00,
2013-05-10 22:27:00,48.0,23.5,24.49,NE,45,6.0,8.0,38,0.00,,,0.00,meteohub,2013-05-11 04:27:00,
2013-05-10 22:32:00,48.2,23.2,24.49,East,90,4.0,8.0,37,0.00,,,0.00,meteohub,2013-05-11 04:32:00,
2013-05-10 22:37:00,48.4,23.9,24.49,East,90,6.0,8.0,38,0.00,,,0.00,meteohub,2013-05-11 04:37:00,
2013-05-10 22:42:00,48.6,24.1,24.48,East,90,5.0,6.0,38,0.00,,,0.00,meteohub,2013-05-11 04:42:00,
2013-05-10 22:47:00,48.6,24.1,24.49,ENE,68,6.0,6.0,38,0.00,,,0.00,meteohub,2013-05-11 04:47:00,
2013-05-10 22:52:00,48.4,23.9,24.49,ENE,68,4.0,6.0,38,0.00,,,0.00,meteohub,2013-05-11 04:52:00,
2013-05-10 22:57:00,48.4,23.9,24.49,NE,45,5.0,6.0,38,0.00,,,0.00,meteohub,2013-05-11 04:57:00,
2013-05-10 23:02:00,48.4,23.9,24.49,East,90,4.0,6.0,38,0.00,,,0.00,meteohub,2013-05-11 05:02:00,
2013-05-10 23:07:00,48.4,23.9,24.48,East,90,4.0,5.0,38,0.00,,,0.00,meteohub,2013-05-11 05:07:00,
2013-05-10 23:12:00,48.6,24.1,24.48,SE,135,5.0,6.0,38,0.00,,,0.00,meteohub,2013-05-11 05:12:00,
2013-05-10 23:17:00,48.6,24.1,24.48,ESE,113,6.0,6.0,38,0.00,,,0.00,meteohub,2013-05-11 05:17:00,
2013-05-10 23:22:00,48.4,23.9,24.48,ESE,113,6.0,7.0,38,0.00,,,0.00,meteohub,2013-05-11 05:22:00,
2013-05-10 23:27:00,48.0,24.3,24.49,SE,135,4.0,7.0,39,0.00,,,0.00,meteohub,2013-05-11 05:27:00,
2013-05-10 23:32:00,48.2,23.7,24.48,SE,135,5.0,7.0,38,0.00,,,0.00,meteohub,2013-05-11 05:32:00,
2013-05-10 23:42:00,47.8,24.6,24.48,South,180,2.0,5.0,40,0.00,,,0.00,meteohub,2013-05-11 05:42:00,
2013-05-10 23:47:00,47.8,24.6,24.48,South,180,4.0,5.0,40,0.00,,,0.00,meteohub,2013-05-11 05:47:00,
2013-05-10 23:52:00,48.0,25.5,24.48,South,180,4.0,4.0,41,0.00,,,0.00,meteohub,2013-05-11 05:52:00,
2013-05-10 23:57:00,48.2,25.5,24.49,South,180,5.0,5.0,41,0.00,,,0.00,meteohub,2013-05-11 05:57:00,